sensor_id;sensor_type;location;lat;lon;timestamp;pressure;altitude;pressure_sealevel;temperature;humidity
81397;BME280;70852;49.908;8.126;2023-10-19T00:00:35;98499.81;;;10.26;94.01
81397;BME280;70852;49.908;8.126;2023-10-19T00:03:01;98495.50;;;10.29;94.21
81397;BME280;70852;49.908;8.126;2023-10-19T00:05:30;98492.63;;;10.41;93.42
81397;BME280;70852;49.908;8.126;2023-10-19T00:08:00;98493.06;;;10.43;94.42
81397;BME280;70852;49.908;8.126;2023-10-19T00:10:40;98485.22;;;10.45;93.90
81397;BME280;70852;49.908;8.126;2023-10-19T00:13:08;98485.28;;;10.49;93.78
81397;BME280;70852;49.908;8.126;2023-10-19T00:15:35;98482.91;;;10.47;94.67
81397;BME280;70852;49.908;8.126;2023-10-19T00:18:07;98487.06;;;10.57;94.85
81397;BME280;70852;49.908;8.126;2023-10-19T00:20:45;98472.50;;;10.60;94.79
81397;BME280;70852;49.908;8.126;2023-10-19T00:23:14;98468.31;;;10.66;94.63
81397;BME280;70852;49.908;8.126;2023-10-19T00:25:46;98466.72;;;10.65;94.74
81397;BME280;70852;49.908;8.126;2023-10-19T00:28:19;98465.63;;;10.70;95.48
81397;BME280;70852;49.908;8.126;2023-10-19T00:30:47;98469.78;;;10.79;94.96
81397;BME280;70852;49.908;8.126;2023-10-19T00:33:17;98464.16;;;10.76;94.55
81397;BME280;70852;49.908;8.126;2023-10-19T00:35:46;98473.03;;;10.85;94.66
81397;BME280;70852;49.908;8.126;2023-10-19T00:38:15;98464.75;;;10.85;94.31
81397;BME280;70852;49.908;8.126;2023-10-19T00:40:55;98458.41;;;10.84;94.33
81397;BME280;70852;49.908;8.126;2023-10-19T00:43:44;98468.63;;;10.80;94.14
81397;BME280;70852;49.908;8.126;2023-10-19T00:46:18;98456.09;;;10.86;94.26
81397;BME280;70852;49.908;8.126;2023-10-19T00:48:44;98470.25;;;10.85;94.38
81397;BME280;70852;49.908;8.126;2023-10-19T00:51:20;98451.59;;;10.78;95.22
81397;BME280;70852;49.908;8.126;2023-10-19T00:54:00;98454.41;;;10.82;94.97
81397;BME280;70852;49.908;8.126;2023-10-19T00:56:36;98451.94;;;10.96;94.49
81397;BME280;70852;49.908;8.126;2023-10-19T00:59:04;98450.78;;;10.97;93.36
81397;BME280;70852;49.908;8.126;2023-10-19T01:01:42;98450.47;;;11.02;93.56
81397;BME280;70852;49.908;8.126;2023-10-19T01:04:13;98442.59;;;11.04;93.18
81397;BME280;70852;49.908;8.126;2023-10-19T01:06:50;98445.00;;;11.06;93.56
81397;BME280;70852;49.908;8.126;2023-10-19T01:09:38;98442.78;;;10.92;93.70
81397;BME280;70852;49.908;8.126;2023-10-19T01:12:04;98436.97;;;10.97;93.84
81397;BME280;70852;49.908;8.126;2023-10-19T01:15:11;98437.31;;;10.95;93.65
81397;BME280;70852;49.908;8.126;2023-10-19T01:17:45;98434.28;;;11.00;94.05
81397;BME280;70852;49.908;8.126;2023-10-19T01:20:20;98440.22;;;11.02;93.51
81397;BME280;70852;49.908;8.126;2023-10-19T01:22:55;98445.94;;;10.90;93.06
81397;BME280;70852;49.908;8.126;2023-10-19T01:25:48;98434.28;;;11.00;93.33
81397;BME280;70852;49.908;8.126;2023-10-19T01:28:31;98431.81;;;10.95;92.90
81397;BME280;70852;49.908;8.126;2023-10-19T01:31:21;98421.47;;;10.92;93.75
81397;BME280;70852;49.908;8.126;2023-10-19T01:33:52;98423.50;;;10.95;93.76
81397;BME280;70852;49.908;8.126;2023-10-19T01:36:21;98421.63;;;10.99;93.34
81397;BME280;70852;49.908;8.126;2023-10-19T01:38:51;98420.19;;;10.86;93.84
81397;BME280;70852;49.908;8.126;2023-10-19T01:41:19;98426.00;;;11.00;93.19
81397;BME280;70852;49.908;8.126;2023-10-19T01:43:49;98419.09;;;10.91;93.38
81397;BME280;70852;49.908;8.126;2023-10-19T01:46:19;98414.13;;;11.00;93.23
81397;BME280;70852;49.908;8.126;2023-10-19T01:48:58;98419.16;;;10.94;93.43
81397;BME280;70852;49.908;8.126;2023-10-19T01:51:25;98423.88;;;10.94;93.40
81397;BME280;70852;49.908;8.126;2023-10-19T01:53:54;98414.31;;;10.88;94.03
81397;BME280;70852;49.908;8.126;2023-10-19T01:56:24;98417.63;;;10.97;93.65
81397;BME280;70852;49.908;8.126;2023-10-19T01:58:50;98408.19;;;10.98;93.73
81397;BME280;70852;49.908;8.126;2023-10-19T02:01:20;98414.88;;;10.97;93.37
81397;BME280;70852;49.908;8.126;2023-10-19T02:03:46;98406.25;;;11.02;93.80
81397;BME280;70852;49.908;8.126;2023-10-19T02:06:14;98396.44;;;11.05;93.54
81397;BME280;70852;49.908;8.126;2023-10-19T02:11:19;98398.41;;;11.04;93.53
81397;BME280;70852;49.908;8.126;2023-10-19T02:13:46;98396.81;;;11.03;93.28
81397;BME280;70852;49.908;8.126;2023-10-19T02:16:15;98392.03;;;11.00;93.85
81397;BME280;70852;49.908;8.126;2023-10-19T02:18:44;98394.84;;;11.04;93.09
81397;BME280;70852;49.908;8.126;2023-10-19T02:21:09;98393.25;;;11.02;93.55
81397;BME280;70852;49.908;8.126;2023-10-19T02:23:40;98384.22;;;11.06;93.73
81397;BME280;70852;49.908;8.126;2023-10-19T02:26:10;98377.19;;;11.08;93.43
81397;BME280;70852;49.908;8.126;2023-10-19T02:28:43;98375.94;;;11.06;93.46
81397;BME280;70852;49.908;8.126;2023-10-19T02:31:09;98369.69;;;11.09;93.35
81397;BME280;70852;49.908;8.126;2023-10-19T02:33:46;98372.09;;;11.10;92.95
81397;BME280;70852;49.908;8.126;2023-10-19T02:36:19;98376.56;;;11.18;92.60
81397;BME280;70852;49.908;8.126;2023-10-19T02:38:46;98369.69;;;11.09;93.34
81397;BME280;70852;49.908;8.126;2023-10-19T02:41:15;98372.75;;;11.04;93.54
81397;BME280;70852;49.908;8.126;2023-10-19T02:43:43;98373.91;;;11.02;93.62
81397;BME280;70852;49.908;8.126;2023-10-19T02:46:18;98375.03;;;10.98;93.59
81397;BME280;70852;49.908;8.126;2023-10-19T02:48:44;98373.56;;;11.04;93.88
81397;BME280;70852;49.908;8.126;2023-10-19T02:51:15;98377.53;;;11.07;93.55
81397;BME280;70852;49.908;8.126;2023-10-19T02:53:40;98369.19;;;11.03;93.31
81397;BME280;70852;49.908;8.126;2023-10-19T02:56:14;98369.59;;;11.02;93.67
81397;BME280;70852;49.908;8.126;2023-10-19T02:58:44;98363.66;;;11.03;93.47
81397;BME280;70852;49.908;8.126;2023-10-19T03:01:19;98370.13;;;11.11;93.05
81397;BME280;70852;49.908;8.126;2023-10-19T03:03:57;98365.41;;;11.11;93.13
81397;BME280;70852;49.908;8.126;2023-10-19T03:06:27;98361.09;;;11.14;93.57
81397;BME280;70852;49.908;8.126;2023-10-19T03:09:00;98363.03;;;11.13;93.39
81397;BME280;70852;49.908;8.126;2023-10-19T03:11:49;98362.50;;;11.04;93.91
81397;BME280;70852;49.908;8.126;2023-10-19T03:14:19;98357.91;;;11.12;93.30
81397;BME280;70852;49.908;8.126;2023-10-19T03:16:44;98360.72;;;11.15;92.84
81397;BME280;70852;49.908;8.126;2023-10-19T03:19:11;98359.44;;;11.09;92.99
81397;BME280;70852;49.908;8.126;2023-10-19T03:21:38;98361.50;;;10.93;93.94
81397;BME280;70852;49.908;8.126;2023-10-19T03:24:13;98355.50;;;10.87;94.33
81397;BME280;70852;49.908;8.126;2023-10-19T03:26:49;98368.28;;;10.95;93.58
81397;BME280;70852;49.908;8.126;2023-10-19T03:29:15;98358.53;;;11.02;93.30
81397;BME280;70852;49.908;8.126;2023-10-19T03:31:45;98359.31;;;11.02;92.95
81397;BME280;70852;49.908;8.126;2023-10-19T03:34:13;98356.19;;;11.04;93.77
81397;BME280;70852;49.908;8.126;2023-10-19T03:36:41;98348.16;;;10.95;93.63
81397;BME280;70852;49.908;8.126;2023-10-19T03:39:07;98336.00;;;10.99;93.14
81397;BME280;70852;49.908;8.126;2023-10-19T03:41:43;98333.09;;;10.92;93.09
81397;BME280;70852;49.908;8.126;2023-10-19T03:44:12;98317.34;;;10.93;93.48
81397;BME280;70852;49.908;8.126;2023-10-19T03:46:45;98310.72;;;10.97;93.65
81397;BME280;70852;49.908;8.126;2023-10-19T03:49:39;98300.56;;;10.82;94.21
81397;BME280;70852;49.908;8.126;2023-10-19T03:52:06;98304.91;;;10.80;94.50
81397;BME280;70852;49.908;8.126;2023-10-19T03:54:35;98290.34;;;10.83;93.79
81397;BME280;70852;49.908;8.126;2023-10-19T03:57:08;98291.13;;;10.83;93.70
81397;BME280;70852;49.908;8.126;2023-10-19T03:59:52;98304.41;;;10.74;94.66
81397;BME280;70852;49.908;8.126;2023-10-19T04:02:21;98304.09;;;10.79;94.48
81397;BME280;70852;49.908;8.126;2023-10-19T04:04:47;98296.63;;;10.80;94.28
81397;BME280;70852;49.908;8.126;2023-10-19T04:07:22;98287.03;;;10.74;93.96
81397;BME280;70852;49.908;8.126;2023-10-19T04:09:53;98288.00;;;10.62;94.36
81397;BME280;70852;49.908;8.126;2023-10-19T04:12:27;98289.31;;;10.68;95.04
81397;BME280;70852;49.908;8.126;2023-10-19T04:15:01;98291.75;;;10.73;94.76
81397;BME280;70852;49.908;8.126;2023-10-19T04:17:43;98302.44;;;10.75;94.05
81397;BME280;70852;49.908;8.126;2023-10-19T04:20:11;98292.19;;;10.75;95.03
81397;BME280;70852;49.908;8.126;2023-10-19T04:22:42;98281.22;;;10.79;93.94
81397;BME280;70852;49.908;8.126;2023-10-19T04:25:08;98290.34;;;10.83;93.68
81397;BME280;70852;49.908;8.126;2023-10-19T04:27:36;98300.56;;;10.82;93.75
81397;BME280;70852;49.908;8.126;2023-10-19T04:30:02;98311.22;;;10.80;93.62
81397;BME280;70852;49.908;8.126;2023-10-19T04:32:28;98302.19;;;10.83;94.19
81397;BME280;70852;49.908;8.126;2023-10-19T04:34:57;98284.81;;;10.83;94.38
81397;BME280;70852;49.908;8.126;2023-10-19T04:37:24;98278.94;;;10.84;94.04
81397;BME280;70852;49.908;8.126;2023-10-19T04:39:49;98279.34;;;10.86;94.53
81397;BME280;70852;49.908;8.126;2023-10-19T04:42:15;98286.47;;;10.87;94.21
81397;BME280;70852;49.908;8.126;2023-10-19T04:44:40;98278.13;;;10.84;94.13
81397;BME280;70852;49.908;8.126;2023-10-19T04:47:06;98279.78;;;10.88;94.00
81397;BME280;70852;49.908;8.126;2023-10-19T04:49:31;98283.72;;;10.87;94.09
81397;BME280;70852;49.908;8.126;2023-10-19T04:51:56;98275.38;;;10.84;94.24
81397;BME280;70852;49.908;8.126;2023-10-19T04:54:22;98288.00;;;10.85;94.64
81397;BME280;70852;49.908;8.126;2023-10-19T04:56:47;98282.84;;;10.83;94.72
81397;BME280;70852;49.908;8.126;2023-10-19T04:59:15;98293.09;;;10.83;94.06
81397;BME280;70852;49.908;8.126;2023-10-19T05:01:40;98295.66;;;10.72;94.46
81397;BME280;70852;49.908;8.126;2023-10-19T05:04:06;98298.06;;;10.74;94.56
81397;BME280;70852;49.908;8.126;2023-10-19T05:06:31;98296.47;;;10.73;94.73
81397;BME280;70852;49.908;8.126;2023-10-19T05:08:59;98282.31;;;10.74;94.35
81397;BME280;70852;49.908;8.126;2023-10-19T05:11:27;98283.91;;;10.75;94.58
81397;BME280;70852;49.908;8.126;2023-10-19T05:13:55;98285.44;;;10.73;94.66
81397;BME280;70852;49.908;8.126;2023-10-19T05:16:20;98288.56;;;10.71;95.02
81397;BME280;70852;49.908;8.126;2023-10-19T05:18:48;98279.09;;;10.72;94.91
81397;BME280;70852;49.908;8.126;2023-10-19T05:21:13;98279.97;;;10.76;94.83
81397;BME280;70852;49.908;8.126;2023-10-19T05:23:39;98281.81;;;10.69;95.71
81397;BME280;70852;49.908;8.126;2023-10-19T05:26:06;98295.56;;;10.65;95.75
81397;BME280;70852;49.908;8.126;2023-10-19T05:28:32;98278.38;;;10.75;95.44
81397;BME280;70852;49.908;8.126;2023-10-19T05:30:58;98274.34;;;10.69;95.58
81397;BME280;70852;49.908;8.126;2023-10-19T05:33:24;98278.03;;;10.77;94.95
81397;BME280;70852;49.908;8.126;2023-10-19T05:35:51;98283.19;;;10.78;94.64
81397;BME280;70852;49.908;8.126;2023-10-19T05:38:17;98278.28;;;10.68;95.56
81397;BME280;70852;49.908;8.126;2023-10-19T05:40:44;98278.38;;;10.75;95.69
81397;BME280;70852;49.908;8.126;2023-10-19T05:43:15;98282.66;;;10.73;95.54
81397;BME280;70852;49.908;8.126;2023-10-19T05:45:43;98279.25;;;10.79;95.29
81397;BME280;70852;49.908;8.126;2023-10-19T05:48:08;98275.63;;;10.75;95.36
81397;BME280;70852;49.908;8.126;2023-10-19T05:50:36;98278.81;;;10.77;96.03
81397;BME280;70852;49.908;8.126;2023-10-19T05:53:04;98290.22;;;10.76;95.47
81397;BME280;70852;49.908;8.126;2023-10-19T05:55:32;98280.78;;;10.77;95.96
81397;BME280;70852;49.908;8.126;2023-10-19T05:57:59;98283.47;;;10.73;95.97
81397;BME280;70852;49.908;8.126;2023-10-19T06:00:24;98278.31;;;10.72;96.34
81397;BME280;70852;49.908;8.126;2023-10-19T06:02:54;98282.38;;;10.78;96.25
81397;BME280;70852;49.908;8.126;2023-10-19T06:05:22;98274.13;;;10.81;96.24
81397;BME280;70852;49.908;8.126;2023-10-19T06:07:49;98276.09;;;10.81;96.12
81397;BME280;70852;49.908;8.126;2023-10-19T06:10:21;98273.41;;;10.84;96.05
81397;BME280;70852;49.908;8.126;2023-10-19T06:12:52;98283.66;;;10.84;95.95
81397;BME280;70852;49.908;8.126;2023-10-19T06:15:21;98279.34;;;10.86;96.02
81397;BME280;70852;49.908;8.126;2023-10-19T06:17:50;98282.97;;;10.90;95.97
81397;BME280;70852;49.908;8.126;2023-10-19T06:20:18;98277.13;;;10.95;95.84
81397;BME280;70852;49.908;8.126;2023-10-19T06:22:52;98289.41;;;10.98;95.47
81397;BME280;70852;49.908;8.126;2023-10-19T06:25:19;98285.97;;;11.05;95.21
81397;BME280;70852;49.908;8.126;2023-10-19T06:27:47;98289.16;;;11.07;95.67
81397;BME280;70852;49.908;8.126;2023-10-19T06:30:14;98295.84;;;11.06;95.27
81397;BME280;70852;49.908;8.126;2023-10-19T06:32:55;98293.94;;;11.10;95.33
81397;BME280;70852;49.908;8.126;2023-10-19T06:35:25;98293.56;;;11.11;95.39
81397;BME280;70852;49.908;8.126;2023-10-19T06:37:53;98286.50;;;11.14;95.19
81397;BME280;70852;49.908;8.126;2023-10-19T06:40:22;98290.81;;;11.11;95.96
81397;BME280;70852;49.908;8.126;2023-10-19T06:42:48;98287.81;;;11.23;95.48
81397;BME280;70852;49.908;8.126;2023-10-19T06:45:15;98290.13;;;11.18;95.79
81397;BME280;70852;49.908;8.126;2023-10-19T06:47:42;98296.50;;;11.22;95.37
81397;BME280;70852;49.908;8.126;2023-10-19T06:50:10;98295.38;;;11.26;95.37
81397;BME280;70852;49.908;8.126;2023-10-19T06:52:37;98289.47;;;11.28;95.34
81397;BME280;70852;49.908;8.126;2023-10-19T06:55:04;98286.63;;;11.21;96.20
81397;BME280;70852;49.908;8.126;2023-10-19T06:57:30;98294.16;;;11.24;95.72
81397;BME280;70852;49.908;8.126;2023-10-19T07:00:01;98295.81;;;11.28;95.69
81397;BME280;70852;49.908;8.126;2023-10-19T07:02:36;98295.44;;;11.30;95.72
81397;BME280;70852;49.908;8.126;2023-10-19T07:05:06;98296.69;;;11.36;95.44
81397;BME280;70852;49.908;8.126;2023-10-19T07:07:35;98295.22;;;11.42;95.55
81397;BME280;70852;49.908;8.126;2023-10-19T07:10:03;98291.66;;;11.42;95.09
81397;BME280;70852;49.908;8.126;2023-10-19T07:12:29;98276.63;;;11.39;95.12
81397;BME280;70852;49.908;8.126;2023-10-19T07:14:54;98276.72;;;11.46;95.47
81397;BME280;70852;49.908;8.126;2023-10-19T07:17:22;98279.59;;;11.53;94.85
81397;BME280;70852;49.908;8.126;2023-10-19T07:19:47;98271.66;;;11.52;94.85
81397;BME280;70852;49.908;8.126;2023-10-19T07:22:16;98276.78;;;11.50;95.27
81397;BME280;70852;49.908;8.126;2023-10-19T07:24:42;98284.31;;;11.53;95.03
81397;BME280;70852;49.908;8.126;2023-10-19T07:27:07;98287.41;;;11.48;95.45
81397;BME280;70852;49.908;8.126;2023-10-19T07:29:39;98282.00;;;11.58;94.93
81397;BME280;70852;49.908;8.126;2023-10-19T07:32:08;98284.03;;;11.61;94.88
81397;BME280;70852;49.908;8.126;2023-10-19T07:34:36;98297.06;;;11.61;94.72
81397;BME280;70852;49.908;8.126;2023-10-19T07:37:01;98300.69;;;11.65;95.01
81397;BME280;70852;49.908;8.126;2023-10-19T07:39:27;98297.91;;;11.65;94.93
81397;BME280;70852;49.908;8.126;2023-10-19T07:41:55;98287.44;;;11.78;94.05
81397;BME280;70852;49.908;8.126;2023-10-19T07:44:22;98283.97;;;11.84;94.23
81397;BME280;70852;49.908;8.126;2023-10-19T07:46:47;98273.78;;;11.92;94.21
81397;BME280;70852;49.908;8.126;2023-10-19T07:49:15;98269.13;;;11.96;94.37
81397;BME280;70852;49.908;8.126;2023-10-19T07:51:46;98269.94;;;12.00;94.13
81397;BME280;70852;49.908;8.126;2023-10-19T07:54:12;98285.44;;;12.08;93.95
81397;BME280;70852;49.908;8.126;2023-10-19T07:56:38;98281.97;;;12.15;93.39
81397;BME280;70852;49.908;8.126;2023-10-19T07:59:04;98276.06;;;12.16;94.06
81397;BME280;70852;49.908;8.126;2023-10-19T08:01:29;98282.16;;;12.29;93.52
81397;BME280;70852;49.908;8.126;2023-10-19T08:03:55;98289.81;;;12.09;93.99
81397;BME280;70852;49.908;8.126;2023-10-19T08:06:20;98294.16;;;12.10;94.32
81397;BME280;70852;49.908;8.126;2023-10-19T08:08:47;98295.50;;;12.23;93.31
81397;BME280;70852;49.908;8.126;2023-10-19T08:11:13;98288.84;;;12.28;93.00
81397;BME280;70852;49.908;8.126;2023-10-19T08:13:38;98289.66;;;12.32;93.24
81397;BME280;70852;49.908;8.126;2023-10-19T08:16:07;98299.50;;;12.29;91.93
81397;BME280;70852;49.908;8.126;2023-10-19T08:18:35;98287.75;;;12.36;91.88
81397;BME280;70852;49.908;8.126;2023-10-19T08:21:01;98293.28;;;12.36;92.20
81397;BME280;70852;49.908;8.126;2023-10-19T08:23:29;98291.44;;;12.51;91.70
81397;BME280;70852;49.908;8.126;2023-10-19T08:25:58;98290.19;;;12.44;93.10
81397;BME280;70852;49.908;8.126;2023-10-19T08:28:24;98293.69;;;12.38;93.18
81397;BME280;70852;49.908;8.126;2023-10-19T08:30:50;98289.03;;;12.45;92.34
81397;BME280;70852;49.908;8.126;2023-10-19T08:33:36;98289.03;;;12.45;92.48
81397;BME280;70852;49.908;8.126;2023-10-19T08:36:06;98285.69;;;12.66;91.90
81397;BME280;70852;49.908;8.126;2023-10-19T08:38:34;98275.53;;;12.81;90.83
81397;BME280;70852;49.908;8.126;2023-10-19T08:41:00;98271.22;;;12.87;91.08
81397;BME280;70852;49.908;8.126;2023-10-19T08:43:25;98253.91;;;13.01;90.78
81397;BME280;70852;49.908;8.126;2023-10-19T08:45:54;98253.47;;;12.92;91.55
81397;BME280;70852;49.908;8.126;2023-10-19T08:48:20;98260.56;;;12.89;91.53
81397;BME280;70852;49.908;8.126;2023-10-19T08:50:48;98265.34;;;12.96;91.19
81397;BME280;70852;49.908;8.126;2023-10-19T08:53:17;98276.16;;;13.11;90.90
81397;BME280;70852;49.908;8.126;2023-10-19T08:55:44;98277.50;;;13.28;90.52
81397;BME280;70852;49.908;8.126;2023-10-19T08:58:10;98265.78;;;13.56;88.90
81397;BME280;70852;49.908;8.126;2023-10-19T09:00:47;98265.88;;;13.74;87.95
81397;BME280;70852;49.908;8.126;2023-10-19T09:03:13;98272.66;;;13.76;87.97
81397;BME280;70852;49.908;8.126;2023-10-19T09:05:40;98266.28;;;13.72;88.03
81397;BME280;70852;49.908;8.126;2023-10-19T09:08:06;98254.03;;;13.84;88.28
81397;BME280;70852;49.908;8.126;2023-10-19T09:10:31;98245.34;;;13.85;87.79
81397;BME280;70852;49.908;8.126;2023-10-19T09:15:29;98256.38;;;13.75;88.42
81397;BME280;70852;49.908;8.126;2023-10-19T09:17:58;98243.25;;;13.65;89.56
81397;BME280;70852;49.908;8.126;2023-10-19T09:20:23;98240.88;;;13.63;90.04
81397;BME280;70852;49.908;8.126;2023-10-19T09:22:57;98232.94;;;13.62;90.28
81397;BME280;70852;49.908;8.126;2023-10-19T09:25:23;98221.84;;;13.62;90.15
81397;BME280;70852;49.908;8.126;2023-10-19T09:27:50;98214.81;;;13.85;89.67
81397;BME280;70852;49.908;8.126;2023-10-19T09:30:19;98202.56;;;13.93;90.02
81397;BME280;70852;49.908;8.126;2023-10-19T09:32:46;98214.44;;;13.90;90.23
81397;BME280;70852;49.908;8.126;2023-10-19T09:35:14;98218.44;;;13.97;89.81
81397;BME280;70852;49.908;8.126;2023-10-19T09:37:41;98223.56;;;14.02;89.95
81397;BME280;70852;49.908;8.126;2023-10-19T09:40:10;98230.09;;;13.47;91.38
81397;BME280;70852;49.908;8.126;2023-10-19T09:42:45;98212.66;;;13.43;92.13
81397;BME280;70852;49.908;8.126;2023-10-19T09:45:18;98205.19;;;13.62;91.45
81397;BME280;70852;49.908;8.126;2023-10-19T09:47:49;98217.91;;;13.70;92.31
81397;BME280;70852;49.908;8.126;2023-10-19T09:50:14;98215.22;;;13.87;91.04
81397;BME280;70852;49.908;8.126;2023-10-19T09:52:40;98215.22;;;13.91;91.37
81397;BME280;70852;49.908;8.126;2023-10-19T09:55:22;98218.38;;;13.82;91.47
81397;BME280;70852;49.908;8.126;2023-10-19T09:57:55;98225.44;;;13.69;91.57
81397;BME280;70852;49.908;8.126;2023-10-19T10:00:24;98216.72;;;13.71;91.90
81397;BME280;70852;49.908;8.126;2023-10-19T10:02:50;98221.91;;;13.76;91.69
81397;BME280;70852;49.908;8.126;2023-10-19T10:10:46;98223.22;;;14.07;90.50
81397;BME280;70852;49.908;8.126;2023-10-19T10:13:37;98217.25;;;14.05;90.85
81397;BME280;70852;49.908;8.126;2023-10-19T10:16:05;98226.00;;;14.14;92.03
81397;BME280;70852;49.908;8.126;2023-10-19T10:18:38;98228.41;;;14.22;91.21
81397;BME280;70852;49.908;8.126;2023-10-19T10:21:14;98219.72;;;14.38;90.47
81397;BME280;70852;49.908;8.126;2023-10-19T10:23:55;98222.06;;;14.33;90.79
81397;BME280;70852;49.908;8.126;2023-10-19T10:26:27;98214.16;;;14.38;91.13
81397;BME280;70852;49.908;8.126;2023-10-19T10:29:12;98211.00;;;14.43;91.40
81397;BME280;70852;49.908;8.126;2023-10-19T10:31:49;98217.78;;;14.60;90.36
81397;BME280;70852;49.908;8.126;2023-10-19T10:37:03;98213.00;;;14.85;88.81
81397;BME280;70852;49.908;8.126;2023-10-19T10:39:33;98214.59;;;14.86;87.50
81397;BME280;70852;49.908;8.126;2023-10-19T10:42:06;98211.41;;;14.95;87.19
81397;BME280;70852;49.908;8.126;2023-10-19T10:44:44;98203.88;;;14.99;88.37
81397;BME280;70852;49.908;8.126;2023-10-19T10:54:54;98201.88;;;15.10;88.33
81397;BME280;70852;49.908;8.126;2023-10-19T10:57:22;98196.69;;;15.16;88.15
81397;BME280;70852;49.908;8.126;2023-10-19T11:00:01;98198.69;;;15.22;87.94
81397;BME280;70852;49.908;8.126;2023-10-19T11:02:26;98195.91;;;15.22;87.29
81397;BME280;70852;49.908;8.126;2023-10-19T11:04:53;98192.31;;;15.22;88.24
81397;BME280;70852;49.908;8.126;2023-10-19T11:07:20;98190.34;;;15.19;88.83
81397;BME280;70852;49.908;8.126;2023-10-19T11:09:48;98187.56;;;15.22;88.85
81397;BME280;70852;49.908;8.126;2023-10-19T11:12:14;98185.19;;;15.17;89.50
81397;BME280;70852;49.908;8.126;2023-10-19T11:14:59;98184.75;;;15.26;88.58
81397;BME280;70852;49.908;8.126;2023-10-19T11:17:42;98185.97;;;15.25;87.93
81397;BME280;70852;49.908;8.126;2023-10-19T11:20:08;98182.41;;;15.24;86.81
81397;BME280;70852;49.908;8.126;2023-10-19T11:22:48;98177.19;;;15.26;87.23
81397;BME280;70852;49.908;8.126;2023-10-19T11:25:19;98168.88;;;15.33;87.71
81397;BME280;70852;49.908;8.126;2023-10-19T11:27:47;98172.81;;;15.43;88.28
81397;BME280;70852;49.908;8.126;2023-10-19T11:30:20;98171.59;;;15.48;87.90
81397;BME280;70852;49.908;8.126;2023-10-19T11:32:47;98165.22;;;15.51;88.19
81397;BME280;70852;49.908;8.126;2023-10-19T11:35:20;98164.38;;;15.68;86.68
81397;BME280;70852;49.908;8.126;2023-10-19T11:37:51;98165.97;;;15.69;87.73
81397;BME280;70852;49.908;8.126;2023-10-19T11:40:21;98154.88;;;15.65;88.31
81397;BME280;70852;49.908;8.126;2023-10-19T11:42:48;98150.84;;;15.70;88.28
81397;BME280;70852;49.908;8.126;2023-10-19T11:45:13;98153.69;;;15.63;87.07
81397;BME280;70852;49.908;8.126;2023-10-19T11:47:39;98145.31;;;15.66;87.79
81397;BME280;70852;49.908;8.126;2023-10-19T11:50:06;98143.69;;;15.69;87.59
81397;BME280;70852;49.908;8.126;2023-10-19T11:52:32;98151.28;;;15.65;88.14
81397;BME280;70852;49.908;8.126;2023-10-19T11:54:58;98150.13;;;15.52;88.47
81397;BME280;70852;49.908;8.126;2023-10-19T11:57:24;98146.94;;;15.50;88.52
81397;BME280;70852;49.908;8.126;2023-10-19T11:59:50;98144.94;;;15.50;89.66
81397;BME280;70852;49.908;8.126;2023-10-19T12:02:21;98142.16;;;15.54;88.95
81397;BME280;70852;49.908;8.126;2023-10-19T12:04:48;98139.44;;;15.43;89.21
81397;BME280;70852;49.908;8.126;2023-10-19T12:07:18;98139.81;;;15.38;90.12
81397;BME280;70852;49.908;8.126;2023-10-19T12:09:43;98136.66;;;15.39;90.71
81397;BME280;70852;49.908;8.126;2023-10-19T12:12:10;98137.44;;;15.36;90.51
81397;BME280;70852;49.908;8.126;2023-10-19T12:14:38;98132.28;;;15.46;89.50
81397;BME280;70852;49.908;8.126;2023-10-19T12:17:04;98125.56;;;15.32;89.99
81397;BME280;70852;49.908;8.126;2023-10-19T12:19:31;98136.31;;;15.23;91.26
81397;BME280;70852;49.908;8.126;2023-10-19T12:22:03;98133.53;;;15.20;91.14
81397;BME280;70852;49.908;8.126;2023-10-19T12:24:31;98137.13;;;15.20;91.66
81397;BME280;70852;49.908;8.126;2023-10-19T12:26:56;98142.69;;;15.20;89.41
81397;BME280;70852;49.908;8.126;2023-10-19T12:29:24;98139.91;;;15.24;90.45
81397;BME280;70852;49.908;8.126;2023-10-19T12:31:50;98149.03;;;15.24;90.69
81397;BME280;70852;49.908;8.126;2023-10-19T12:34:18;98146.66;;;15.05;91.45
81397;BME280;70852;49.908;8.126;2023-10-19T12:36:46;98142.72;;;15.02;91.16
81397;BME280;70852;49.908;8.126;2023-10-19T12:39:14;98126.44;;;15.01;92.02
81397;BME280;70852;49.908;8.126;2023-10-19T12:42:01;98128.81;;;15.06;92.73
81397;BME280;70852;49.908;8.126;2023-10-19T12:44:28;98118.09;;;15.12;91.67
81397;BME280;70852;49.908;8.126;2023-10-19T12:47:06;98108.06;;;15.32;91.19
81397;BME280;70852;49.908;8.126;2023-10-19T12:49:38;98108.88;;;15.36;91.48
81397;BME280;70852;49.908;8.126;2023-10-19T12:52:04;98103.25;;;15.57;90.46
81397;BME280;70852;49.908;8.126;2023-10-19T12:54:36;98098.84;;;15.49;90.63
81397;BME280;70852;49.908;8.126;2023-10-19T12:57:04;98095.19;;;15.70;90.01
81397;BME280;70852;49.908;8.126;2023-10-19T12:59:35;98091.22;;;15.74;89.29
81397;BME280;70852;49.908;8.126;2023-10-19T13:02:03;98086.00;;;15.80;89.55
81397;BME280;70852;49.908;8.126;2023-10-19T13:04:31;98090.38;;;15.81;89.83
81397;BME280;70852;49.908;8.126;2023-10-19T13:06:56;98088.44;;;15.74;89.75
81397;BME280;70852;49.908;8.126;2023-10-19T13:09:25;98080.09;;;15.74;88.46
81397;BME280;70852;49.908;8.126;2023-10-19T13:11:57;98083.69;;;15.68;88.73
81397;BME280;70852;49.908;8.126;2023-10-19T13:14:22;98085.69;;;15.67;89.38
81397;BME280;70852;49.908;8.126;2023-10-19T13:16:47;98079.28;;;15.74;89.03
81397;BME280;70852;49.908;8.126;2023-10-19T13:19:16;98089.63;;;15.70;89.40
81397;BME280;70852;49.908;8.126;2023-10-19T13:21:49;98089.69;;;15.66;90.91
81397;BME280;70852;49.908;8.126;2023-10-19T13:24:15;98089.34;;;15.57;91.48
81397;BME280;70852;49.908;8.126;2023-10-19T13:26:43;98093.28;;;15.53;90.63
81397;BME280;70852;49.908;8.126;2023-10-19T13:29:12;98089.72;;;15.49;91.21
81397;BME280;70852;49.908;8.126;2023-10-19T13:31:37;98086.59;;;15.39;90.80
81397;BME280;70852;49.908;8.126;2023-10-19T13:34:03;98087.72;;;15.49;91.60